createdAt,value
2023-01-03T08:17:36.414Z,101551.28
2023-01-03T08:20:39.006Z,101557.19
2023-01-03T08:30:31.069Z,101571.09
2023-01-03T08:42:53.245Z,101599.91
2023-01-03T08:45:56.012Z,101597.19
2023-01-03T08:56:21.254Z,101605.03
2023-01-03T09:07:16.857Z,101624.03
2023-01-03T09:17:22.145Z,101633.34
2023-01-03T09:44:30.073Z,101664.50
2023-01-03T09:47:38.076Z,101666.03
2023-01-03T09:51:14.945Z,101667.69
2023-01-03T09:54:24.215Z,101668.31
2023-01-03T09:57:48.750Z,101668.94
2023-01-03T10:01:14.072Z,101670.56
2023-01-03T10:04:50.183Z,101677.47
2023-01-03T10:08:09.052Z,101670.34
2023-01-03T10:11:19.817Z,101672.91
2023-01-03T10:14:34.765Z,101671.81
2023-01-03T10:17:48.418Z,101675.22
2023-01-03T10:20:53.977Z,101676.31
2023-01-03T10:23:57.007Z,101674.34
2023-01-03T10:27:08.318Z,101676.81
2023-01-03T10:30:16.015Z,101677.53
2023-01-03T10:33:30.129Z,101682.72
2023-01-03T10:36:32.706Z,101673.03
2023-01-03T10:39:36.267Z,101678.13
2023-01-03T10:42:40.651Z,101680.03
2023-01-03T10:45:54.417Z,101683.41
2023-01-03T10:49:31.108Z,101681.25
2023-01-03T10:52:38.182Z,101685.75
2023-01-03T10:55:46.818Z,101676.66
2023-01-03T10:58:49.352Z,101674.06
2023-01-03T11:01:57.865Z,101679.28
2023-01-03T11:05:12.596Z,101665.28
2023-01-03T11:08:22.143Z,101668.03
2023-01-03T11:11:29.722Z,101659.34
2023-01-03T11:14:32.343Z,101669.94
2023-01-03T11:17:35.621Z,101661.41
2023-01-03T11:20:44.753Z,101662.94
2023-01-03T11:24:08.926Z,101666.22
2023-01-03T11:27:23.583Z,101669.09
2023-01-03T11:30:33.532Z,101672.56
2023-01-03T11:33:56.520Z,101667.22
2023-01-03T11:37:09.154Z,101672.66
2023-01-03T11:40:22.781Z,101685.22
2023-01-03T11:43:39.156Z,101677.47
2023-01-03T11:46:55.863Z,101669.69
2023-01-03T11:50:12.741Z,101670.97
2023-01-03T11:53:33.123Z,101675.38
2023-01-03T11:56:39.001Z,101683.09
2023-01-03T12:00:02.867Z,101682.44
2023-01-03T12:03:10.403Z,101687.66
2023-01-03T12:06:28.482Z,101685.00
2023-01-03T12:09:39.833Z,101684.91
2023-01-03T12:12:58.528Z,101682.94
2023-01-03T12:16:08.651Z,101682.66
2023-01-03T12:19:24.033Z,101690.28
2023-01-03T12:22:35.357Z,101683.47
2023-01-03T12:25:44.671Z,101693.38
2023-01-03T12:28:53.281Z,101685.50
2023-01-03T12:32:04.022Z,101683.84
2023-01-03T12:35:27.565Z,101682.38
2023-01-03T12:38:32.895Z,101679.06
2023-01-03T12:41:43.161Z,101682.75
2023-01-03T12:44:47.520Z,101678.47
2023-01-03T12:48:00.101Z,101675.81
2023-01-03T12:51:02.596Z,101677.63
2023-01-03T12:54:16.955Z,101670.53
2023-01-03T12:57:42.427Z,101657.25
2023-01-03T13:00:57.089Z,101664.19
2023-01-03T13:04:07.831Z,101660.63
2023-01-03T13:07:15.844Z,101669.44
2023-01-03T13:10:21.133Z,101663.09
2023-01-03T13:13:25.135Z,101656.09
2023-01-03T13:16:45.671Z,101656.94
2023-01-03T13:19:58.655Z,101659.41
2023-01-03T13:23:02.036Z,101659.22
2023-01-03T13:26:22.871Z,101657.97
2023-01-03T13:29:44.168Z,101661.56
2023-01-03T13:32:55.480Z,101657.94
2023-01-03T13:36:00.572Z,101663.22
2023-01-03T13:39:23.092Z,101665.22
2023-01-03T13:42:29.940Z,101665.22
2023-01-03T13:46:02.613Z,101657.53
2023-01-03T13:49:07.801Z,101660.19
2023-01-03T13:52:37.285Z,101657.72
2023-01-03T13:55:49.191Z,101661.41
2023-01-03T13:59:02.325Z,101656.94
2023-01-03T14:02:44.621Z,101658.47
2023-01-03T14:06:23.737Z,101654.09
2023-01-03T14:09:54.119Z,101658.50
2023-01-03T14:13:11.680Z,101667.16
2023-01-03T14:16:20.610Z,101679.22
2023-01-03T14:19:29.077Z,101671.25
2023-01-03T14:22:37.974Z,101674.66
2023-01-03T14:25:42.754Z,101683.44
2023-01-03T14:28:50.160Z,101674.16
2023-01-03T14:31:55.818Z,101679.75
2023-01-03T14:34:59.822Z,101672.97
2023-01-03T14:38:06.803Z,101676.66
2023-01-03T14:41:31.898Z,101675.94
2023-01-03T14:44:35.788Z,101683.91
2023-01-03T14:47:40.053Z,101686.56
2023-01-03T14:50:44.356Z,101687.41
2023-01-03T14:53:46.953Z,101683.25
2023-01-03T14:56:49.840Z,101692.91
2023-01-03T14:59:53.480Z,101693.81
2023-01-03T15:02:57.192Z,101693.00
2023-01-03T15:06:02.395Z,101705.28
2023-01-03T15:09:22.275Z,101705.34
2023-01-03T15:12:25.066Z,101703.81
2023-01-03T15:15:30.262Z,101705.66
2023-01-03T15:18:35.122Z,101715.56
2023-01-03T15:21:39.519Z,101699.38
2023-01-03T15:24:44.332Z,101703.03
2023-01-03T15:27:48.809Z,101703.91
2023-01-03T15:30:53.561Z,101718.75
2023-01-03T15:34:00.618Z,101723.94
2023-01-03T15:37:12.755Z,101725.66
2023-01-03T15:40:15.354Z,101723.16
2023-01-03T15:43:22.060Z,101723.25
2023-01-03T15:46:27.778Z,101725.91
2023-01-03T15:49:32.224Z,101731.13
2023-01-03T15:52:36.076Z,101729.38
2023-01-03T15:55:39.017Z,101726.78
2023-01-03T15:58:42.000Z,101724.19
2023-01-03T16:01:44.580Z,101726.84
2023-01-03T16:04:49.019Z,101735.56
2023-01-03T16:07:52.879Z,101741.69
2023-01-03T16:10:56.296Z,101748.63
2023-01-03T16:14:01.865Z,101751.25
2023-01-03T16:17:05.857Z,101744.28
2023-01-03T16:20:15.889Z,101732.97
2023-01-03T16:23:25.500Z,101738.19
2023-01-03T16:26:27.977Z,101734.66
2023-01-03T16:29:30.432Z,101734.69
2023-01-03T16:32:34.104Z,101746.81
2023-01-03T16:35:36.869Z,101750.31
2023-01-03T16:38:40.678Z,101745.06
2023-01-03T16:41:43.321Z,101738.97
2023-01-03T16:44:48.258Z,101740.72
2023-01-03T16:47:51.825Z,101738.09
2023-01-03T16:50:55.601Z,101745.03
2023-01-03T16:54:00.479Z,101731.97
2023-01-03T16:57:03.019Z,101729.34
2023-01-03T17:00:17.109Z,101728.47
2023-01-03T17:03:20.385Z,101738.75
2023-01-03T17:06:33.451Z,101732.72
2023-01-03T17:09:41.239Z,101728.41
2023-01-03T17:12:43.764Z,101732.69
2023-01-03T17:15:46.297Z,101732.63
2023-01-03T17:18:49.350Z,101743.88
2023-01-03T17:21:52.345Z,101750.72
2023-01-03T17:24:57.281Z,101747.97
2023-01-03T17:28:00.868Z,101742.66
2023-01-03T17:31:03.421Z,101741.78
2023-01-03T17:34:21.265Z,101738.28
2023-01-03T17:37:24.326Z,101750.31
2023-01-03T17:40:33.663Z,101754.66
2023-01-03T17:43:37.461Z,101747.72
2023-01-03T17:46:57.557Z,101744.25
2023-01-03T17:50:01.165Z,101758.06
2023-01-03T17:53:03.782Z,101755.41
2023-01-03T17:56:07.929Z,101757.03
2023-01-03T17:59:14.707Z,101752.75
2023-01-03T18:02:21.162Z,101755.28
2023-01-03T18:05:28.581Z,101751.72
2023-01-03T18:08:31.605Z,101753.31
2023-01-03T18:11:35.694Z,101742.06
2023-01-03T18:14:38.243Z,101743.75
2023-01-03T18:17:40.807Z,101744.53
2023-01-03T18:20:43.399Z,101750.53
2023-01-03T18:23:46.997Z,101748.75
2023-01-03T18:26:53.677Z,101744.28
2023-01-03T18:29:56.287Z,101743.31
2023-01-03T18:32:58.851Z,101739.81
2023-01-03T18:36:01.695Z,101738.13
2023-01-03T18:39:07.664Z,101732.88
2023-01-03T18:42:30.980Z,101730.16
2023-01-03T18:45:34.236Z,101730.88
2023-01-03T18:48:36.731Z,101728.19
2023-01-03T18:51:39.270Z,101736.84
2023-01-03T18:54:41.851Z,101727.41
2023-01-03T18:57:47.263Z,101730.22
2023-01-03T19:00:49.729Z,101736.28
2023-01-03T19:03:52.374Z,101725.97
2023-01-03T19:06:54.935Z,101721.63
2023-01-03T19:09:57.518Z,101734.56
2023-01-03T19:13:01.349Z,101734.53
2023-01-03T19:16:03.873Z,101732.81
2023-01-03T19:19:07.820Z,101723.38
2023-01-03T19:22:22.580Z,101722.50
2023-01-03T19:25:27.887Z,101726.75
2023-01-03T19:28:32.573Z,101717.25
2023-01-03T19:31:41.460Z,101713.84
2023-01-03T19:34:44.535Z,101695.75
2023-01-03T19:37:47.182Z,101692.44
2023-01-03T19:40:50.242Z,101704.66
2023-01-03T19:43:54.043Z,101709.94
2023-01-03T19:46:56.609Z,101703.97
2023-01-03T19:50:06.347Z,101706.72
2023-01-03T19:53:13.807Z,101692.00
2023-01-03T19:56:23.491Z,101689.41
2023-01-03T19:59:30.861Z,101694.81
2023-01-03T20:02:39.197Z,101681.91
2023-01-03T20:05:42.017Z,101674.19
2023-01-03T20:08:44.628Z,101669.91
2023-01-03T20:11:53.008Z,101669.88
2023-01-03T20:15:02.852Z,101673.34
2023-01-03T20:18:23.793Z,101667.16
2023-01-03T20:21:30.173Z,101667.16
2023-01-03T20:24:34.545Z,101672.41
2023-01-03T20:27:44.322Z,101668.94
2023-01-03T20:30:48.486Z,101655.97
2023-01-03T20:33:52.066Z,101645.53
2023-01-03T20:36:55.703Z,101650.78
2023-01-03T20:39:58.379Z,101648.97
2023-01-03T20:43:02.138Z,101656.69
2023-01-03T20:46:06.508Z,101651.53
2023-01-03T20:49:15.852Z,101646.41
2023-01-03T20:52:19.508Z,101637.00
2023-01-03T20:55:25.224Z,101623.22
2023-01-03T20:58:27.929Z,101627.66
2023-01-03T21:01:32.321Z,101620.72
2023-01-03T21:04:34.902Z,101629.34
2023-01-03T21:07:51.550Z,101623.34
2023-01-03T21:10:54.386Z,101617.34
2023-01-03T21:13:57.943Z,101615.59
2023-01-03T21:17:02.000Z,101614.75
2023-01-03T21:20:04.921Z,101615.56
2023-01-03T21:23:07.744Z,101622.53
2023-01-03T21:26:10.300Z,101610.38
2023-01-03T21:29:13.038Z,101607.81
2023-01-03T21:32:16.906Z,101603.50
2023-01-03T21:35:22.217Z,101591.31
2023-01-03T21:38:24.916Z,101593.84
2023-01-03T21:41:29.376Z,101591.13
2023-01-03T21:44:31.839Z,101594.59
2023-01-03T21:47:35.736Z,101597.09
2023-01-03T21:50:40.033Z,101599.69
2023-01-03T21:53:43.507Z,101598.75
2023-01-03T21:56:46.706Z,101599.59
2023-01-03T21:59:49.627Z,101593.44
2023-01-03T22:03:11.114Z,101597.72
2023-01-03T22:06:14.849Z,101599.47
2023-01-03T22:09:31.554Z,101599.38
2023-01-03T22:12:34.137Z,101594.13
2023-01-03T22:15:37.719Z,101597.56
2023-01-03T22:18:41.775Z,101599.31
2023-01-03T22:21:44.375Z,101594.91
2023-01-03T22:24:46.910Z,101600.97
2023-01-03T22:27:49.758Z,101597.50
2023-01-03T22:30:52.244Z,101594.81
2023-01-03T22:33:56.076Z,101600.00
2023-01-03T22:36:58.551Z,101597.38
2023-01-03T22:40:01.042Z,101589.44
2023-01-03T22:43:03.556Z,101593.72
2023-01-03T22:46:07.382Z,101591.09
2023-01-03T22:49:11.426Z,101586.72
2023-01-03T22:52:13.882Z,101577.13
2023-01-03T22:55:16.560Z,101575.31
2023-01-03T22:58:19.104Z,101570.06
2023-01-03T23:01:27.488Z,101556.16
2023-01-03T23:04:32.130Z,101555.34
2023-01-03T23:07:34.628Z,101558.00
2023-01-03T23:10:37.170Z,101550.06
2023-01-03T23:13:39.219Z,101550.06
2023-01-03T23:16:42.454Z,101536.09
2023-01-03T23:19:46.641Z,101534.41
2023-01-03T23:22:54.044Z,101531.84
2023-01-03T23:26:02.096Z,101526.66
2023-01-03T23:29:04.576Z,101523.25
2023-01-03T23:32:07.078Z,101524.09
2023-01-03T23:35:11.919Z,101518.88
2023-01-03T23:38:14.425Z,101503.16
2023-01-03T23:41:17.232Z,101507.50
2023-01-03T23:44:20.060Z,101503.22
2023-01-03T23:47:22.545Z,101493.69
2023-01-03T23:50:26.391Z,101500.63
2023-01-03T23:53:28.924Z,101490.16
2023-01-03T23:56:31.520Z,101489.34
2023-01-03T23:59:34.027Z,101487.63
